createdAt,value
2022-09-11T12:44:32.188Z,100951.13
2022-09-11T12:46:58.681Z,100954.78
2022-09-11T12:49:26.124Z,100948.78
2022-09-11T12:52:01.623Z,100955.19
2022-09-11T12:54:33.547Z,100949.78
2022-09-11T12:57:09.380Z,100950.03
2022-09-11T12:59:38.649Z,100964.00
2022-09-11T13:02:24.556Z,100953.13
2022-09-11T13:04:52.206Z,100953.91
2022-09-11T13:07:30.405Z,100957.88
2022-09-11T13:10:01.421Z,100945.59
2022-09-11T13:12:27.948Z,100946.31
2022-09-11T13:14:56.168Z,100953.50
2022-09-11T13:17:25.954Z,100945.66
2022-09-11T13:19:57.469Z,100944.44
2022-09-11T13:22:31.129Z,100941.19
2022-09-11T13:25:19.006Z,100936.38
2022-09-11T13:27:48.070Z,100937.94
2022-09-11T13:30:16.269Z,100932.69
2022-09-11T13:32:44.081Z,100933.28
2022-09-11T13:35:22.818Z,100925.88
2022-09-11T13:38:01.748Z,100928.22
2022-09-11T13:40:38.267Z,100934.59
2022-09-11T13:43:05.172Z,100928.38
2022-09-11T13:45:31.878Z,100928.31
2022-09-11T13:47:59.251Z,100931.53
2022-09-11T13:50:25.969Z,100927.34
2022-09-11T13:52:53.602Z,100930.13
2022-09-11T13:55:25.179Z,100926.88
2022-09-11T13:57:59.601Z,100934.53
2022-09-11T14:00:40.877Z,100932.56
2022-09-11T14:03:33.947Z,100929.34
2022-09-11T14:06:10.167Z,100922.22
2022-09-11T14:08:42.864Z,100926.47
2022-09-11T14:11:18.251Z,100922.47
2022-09-11T14:13:58.525Z,100926.41
2022-09-11T14:16:29.070Z,100922.66
2022-09-11T14:19:21.971Z,100921.38
2022-09-11T14:21:49.767Z,100918.22
2022-09-11T14:24:22.350Z,100923.56
2022-09-11T14:26:49.056Z,100916.16
2022-09-11T14:29:55.627Z,100920.13
2022-09-11T14:32:36.903Z,100922.00
2022-09-11T14:35:06.596Z,100922.66
2022-09-11T14:37:36.497Z,100919.91
2022-09-11T14:40:06.909Z,100921.63
2022-09-11T14:42:35.068Z,100922.59
2022-09-11T14:45:09.433Z,100926.13
2022-09-11T14:47:36.572Z,100925.06
2022-09-11T14:50:03.256Z,100926.75
2022-09-11T14:52:30.369Z,100931.09
2022-09-11T14:54:57.026Z,100920.72
2022-09-11T14:57:26.301Z,100927.47
2022-09-11T14:59:53.129Z,100925.59
2022-09-11T15:02:24.795Z,100921.06
2022-09-11T15:04:53.400Z,100936.44
2022-09-11T15:07:23.218Z,100927.06
2022-09-11T15:09:50.978Z,100927.09
2022-09-11T15:12:17.767Z,100929.88
2022-09-11T15:14:56.398Z,100939.56
2022-09-11T15:17:25.434Z,100926.34
2022-09-11T15:19:52.816Z,100937.19
2022-09-11T15:22:19.659Z,100941.50
2022-09-11T15:24:49.066Z,100952.25
2022-09-11T15:27:15.933Z,100947.28
2022-09-11T15:29:42.690Z,100949.00
2022-09-11T15:32:10.287Z,100955.22
2022-09-11T15:34:38.698Z,100960.81
2022-09-11T15:37:06.011Z,100956.03
2022-09-11T15:39:36.620Z,100956.78
2022-09-11T15:42:03.554Z,100945.78
2022-09-11T15:44:30.397Z,100951.03
2022-09-11T15:46:58.746Z,100950.88
2022-09-11T15:49:28.060Z,100952.06
2022-09-11T15:51:55.453Z,100953.81
2022-09-11T15:54:23.483Z,100958.47
2022-09-11T15:56:51.137Z,100959.94
2022-09-11T15:59:18.119Z,100957.59
2022-09-11T16:01:45.147Z,100956.66
2022-09-11T16:04:14.599Z,100957.75
2022-09-11T16:06:45.805Z,100961.88
2022-09-11T16:09:21.798Z,100956.22
2022-09-11T16:11:50.576Z,100964.56
2022-09-11T16:14:25.494Z,100957.88
2022-09-11T16:16:52.909Z,100963.69
2022-09-11T16:19:22.106Z,100956.31
2022-09-11T16:21:50.098Z,100954.25
2022-09-11T16:24:17.208Z,100955.22
2022-09-11T16:26:44.384Z,100953.25
2022-09-11T16:29:12.914Z,100958.84
2022-09-11T16:31:40.182Z,100956.94
2022-09-11T16:34:07.759Z,100955.31
2022-09-11T16:36:42.615Z,100958.31
2022-09-11T16:39:12.996Z,100955.72
2022-09-11T16:41:39.683Z,100945.66
2022-09-11T16:44:08.354Z,100952.38
2022-09-11T16:46:35.462Z,100952.28
2022-09-11T16:49:02.725Z,100952.44
2022-09-11T16:51:30.136Z,100953.59
2022-09-11T16:53:56.962Z,100953.34
2022-09-11T16:56:24.410Z,100944.59
2022-09-11T16:58:51.700Z,100953.06
2022-09-11T17:01:23.389Z,100949.47
2022-09-11T17:03:52.105Z,100949.97
2022-09-11T17:06:20.209Z,100955.38
2022-09-11T17:08:50.504Z,100963.34
2022-09-11T17:11:19.166Z,100955.56
2022-09-11T17:13:46.641Z,100958.47
2022-09-11T17:16:19.187Z,100958.97
2022-09-11T17:18:51.173Z,100967.38
2022-09-11T17:21:17.859Z,100964.97
2022-09-11T17:23:44.792Z,100971.44
2022-09-11T17:26:15.305Z,100973.41
2022-09-11T17:28:45.807Z,100971.88
2022-09-11T17:31:14.460Z,100969.34
2022-09-11T17:33:41.428Z,100969.41
2022-09-11T17:36:10.460Z,100973.06
2022-09-11T17:38:38.241Z,100970.38
2022-09-11T17:41:06.863Z,100969.88
2022-09-11T17:43:34.214Z,100968.03
2022-09-11T17:46:06.397Z,100961.28
2022-09-11T17:48:33.126Z,100963.38
2022-09-11T17:51:14.062Z,100965.19
2022-09-11T17:53:44.097Z,100967.84
2022-09-11T17:56:14.335Z,100968.25
2022-09-11T17:58:42.124Z,100967.38
2022-09-11T18:01:09.013Z,100961.38
2022-09-11T18:03:36.491Z,100966.81
2022-09-11T18:06:04.758Z,100966.34
2022-09-11T18:08:33.276Z,100971.66
2022-09-11T18:11:01.126Z,100962.94
2022-09-11T18:13:31.748Z,100968.53
2022-09-11T18:15:58.716Z,100979.25
2022-09-11T18:18:25.889Z,100977.09
2022-09-11T18:20:54.461Z,100978.06
2022-09-11T18:23:23.164Z,100974.47
2022-09-11T18:25:50.622Z,100979.19
2022-09-11T18:28:19.914Z,100977.50
2022-09-11T18:30:47.427Z,100975.00
2022-09-11T18:33:16.663Z,100983.19
2022-09-11T18:35:44.295Z,100986.91
2022-09-11T18:38:11.089Z,100978.06
2022-09-11T18:40:37.749Z,100989.41
2022-09-11T18:43:05.384Z,100985.22
2022-09-11T18:45:35.058Z,100987.16
2022-09-11T18:48:02.282Z,100996.28
2022-09-11T18:50:28.915Z,100999.97
2022-09-11T18:52:56.621Z,100995.41
2022-09-11T18:55:23.567Z,100998.22
2022-09-11T18:57:50.669Z,101002.69
2022-09-11T19:00:18.382Z,101002.84
2022-09-11T19:02:45.884Z,101007.78
2022-09-11T19:05:13.910Z,101012.31
2022-09-11T19:07:40.511Z,101012.44
2022-09-11T19:10:07.482Z,101010.00
2022-09-11T19:12:34.149Z,101009.13
2022-09-11T19:15:00.731Z,101007.34
2022-09-11T19:17:27.488Z,101006.56
2022-09-11T19:19:54.472Z,101005.69
2022-09-11T19:22:22.860Z,101011.88
2022-09-11T19:24:49.858Z,101016.47
2022-09-11T19:27:16.896Z,101017.28
2022-09-11T19:29:43.628Z,101012.81
2022-09-11T19:32:10.236Z,101016.38
2022-09-11T19:34:46.324Z,101017.44
2022-09-11T19:37:14.505Z,101023.53
2022-09-11T19:39:41.281Z,101013.53
2022-09-11T19:42:09.317Z,101018.03
2022-09-11T19:44:36.328Z,101026.94
2022-09-11T19:47:03.167Z,101031.53
2022-09-11T19:49:29.925Z,101034.97
2022-09-11T19:51:57.059Z,101033.16
2022-09-11T19:54:23.875Z,101034.97
2022-09-11T19:56:51.138Z,101038.63
2022-09-11T19:59:18.240Z,101036.94
2022-09-11T20:01:45.079Z,101041.16
2022-09-11T20:04:13.528Z,101044.50
2022-09-11T20:06:40.214Z,101037.63
2022-09-11T20:09:29.710Z,101038.59
2022-09-11T20:11:53.855Z,101041.94
2022-09-11T20:14:20.473Z,101039.44
2022-09-11T20:16:47.218Z,101044.88
2022-09-11T20:19:14.969Z,101036.03
2022-09-11T20:21:41.869Z,101044.06
2022-09-11T20:24:09.193Z,101048.56
2022-09-11T20:26:35.978Z,101053.81
2022-09-11T20:29:06.781Z,101047.44
2022-09-11T20:31:42.365Z,101049.28
2022-09-11T20:34:12.982Z,101047.50
2022-09-11T20:36:39.594Z,101050.19
2022-09-11T20:39:06.328Z,101042.22
2022-09-11T20:41:33.357Z,101044.88
2022-09-11T20:44:03.730Z,101054.50
2022-09-11T20:46:30.386Z,101048.41
2022-09-11T20:51:47.141Z,101045.97
2022-09-11T20:54:14.154Z,101051.34
2022-09-11T20:56:40.991Z,101053.09
2022-09-11T20:59:07.915Z,101044.28
2022-09-11T21:01:34.679Z,101047.84
2022-09-11T21:04:02.954Z,101051.38
2022-09-11T21:06:32.145Z,101050.59
2022-09-11T21:09:11.122Z,101055.13
2022-09-11T21:11:39.232Z,101053.41
2022-09-11T21:14:06.287Z,101052.53
2022-09-11T21:16:33.697Z,101049.09
2022-09-11T21:19:01.378Z,101052.66
2022-09-11T21:21:29.085Z,101056.19
2022-09-11T21:23:56.826Z,101049.16
2022-09-11T21:26:23.703Z,101054.50
2022-09-11T21:28:52.893Z,101047.56
2022-09-11T21:31:19.752Z,101057.31
2022-09-11T21:33:46.411Z,101053.88
2022-09-11T21:36:13.359Z,101057.44
2022-09-11T21:38:40.017Z,101052.25
2022-09-11T21:41:08.779Z,101051.41
2022-09-11T21:43:35.974Z,101052.38
2022-09-11T21:46:03.665Z,101055.91
2022-09-11T21:48:35.747Z,101055.88
2022-09-11T21:51:16.711Z,101052.50
2022-09-11T21:53:45.316Z,101047.34
2022-09-11T21:56:24.936Z,101055.22
2022-09-11T21:58:52.513Z,101050.94
2022-09-11T22:01:20.567Z,101054.53
2022-09-11T22:03:47.279Z,101051.81
2022-09-11T22:06:14.059Z,101055.50
2022-09-11T22:08:43.647Z,101054.50
2022-09-11T22:11:11.150Z,101051.69
2022-09-11T22:13:38.458Z,101054.63
2022-09-11T22:16:09.771Z,101049.47
2022-09-11T22:18:37.715Z,101053.00
2022-09-11T22:21:04.792Z,101046.13
2022-09-11T22:23:34.473Z,101047.06
2022-09-11T22:26:13.195Z,101058.63
2022-09-11T22:28:40.402Z,101057.75
2022-09-11T22:31:08.671Z,101049.94
2022-09-11T22:33:40.770Z,101051.59
2022-09-11T22:36:19.768Z,101051.41
2022-09-11T22:38:47.396Z,101052.34
2022-09-11T22:41:14.409Z,101056.63
2022-09-11T22:43:41.112Z,101049.56
2022-09-11T22:46:08.172Z,101057.38
2022-09-11T22:48:35.453Z,101054.50
2022-09-11T22:51:02.443Z,101052.81
2022-09-11T22:53:29.616Z,101048.50
2022-09-11T22:55:56.483Z,101050.19
2022-09-11T22:58:23.804Z,101047.59
2022-09-11T23:00:53.554Z,101041.44
2022-09-11T23:03:20.182Z,101044.09
2022-09-11T23:06:06.547Z,101050.31
2022-09-11T23:08:39.108Z,101047.53
2022-09-11T23:11:06.076Z,101045.78
2022-09-11T23:13:33.239Z,101046.81
2022-09-11T23:16:00.101Z,101041.47
2022-09-11T23:18:27.379Z,101041.50
2022-09-11T23:20:55.404Z,101041.50
2022-09-11T23:23:24.570Z,101044.16
2022-09-11T23:25:51.733Z,101046.88
2022-09-11T23:28:18.560Z,101047.94
2022-09-11T23:30:45.532Z,101050.31
2022-09-11T23:33:12.128Z,101050.31
2022-09-11T23:35:39.511Z,101048.56
2022-09-11T23:38:07.322Z,101041.63
2022-09-11T23:40:34.242Z,101038.00
2022-09-11T23:43:02.224Z,101037.25
2022-09-11T23:45:29.087Z,101035.66
2022-09-11T23:47:55.838Z,101036.59
2022-09-11T23:50:22.563Z,101032.31
2022-09-11T23:52:49.387Z,101029.81
2022-09-11T23:55:19.116Z,101039.53
2022-09-11T23:57:46.296Z,101036.94
